createdAt,value
2017-05-06T00:01:02.263Z,20.60
2017-05-06T00:03:31.246Z,21.17
2017-05-06T00:06:00.214Z,20.37
2017-05-06T00:08:29.945Z,21.02
2017-05-06T00:10:58.931Z,22.48
2017-05-06T00:13:28.652Z,23.48
2017-05-06T00:15:57.716Z,22.47
2017-05-06T00:18:26.742Z,22.82
2017-05-06T00:20:55.626Z,22.08
2017-05-06T00:23:24.743Z,22.10
2017-05-06T00:25:53.787Z,22.03
2017-05-06T00:28:22.833Z,24.98
2017-05-06T00:30:51.886Z,24.12
2017-05-06T00:33:20.915Z,22.73
2017-05-06T00:35:49.949Z,24.72
2017-05-06T00:38:19.017Z,23.90
2017-05-06T00:40:48.064Z,24.87
2017-05-06T00:43:17.089Z,23.57
2017-05-06T00:45:46.153Z,25.75
2017-05-06T00:48:15.177Z,23.98
2017-05-06T00:50:44.217Z,24.10
2017-05-06T00:53:13.276Z,26.17
2017-05-06T00:55:42.324Z,23.05
2017-05-06T00:58:11.349Z,23.82
2017-05-06T01:00:41.141Z,23.02
2017-05-06T01:03:10.185Z,25.43
2017-05-06T01:05:39.214Z,22.97
2017-05-06T01:08:08.262Z,25.75
2017-05-06T01:10:37.293Z,22.90
2017-05-06T01:13:06.317Z,24.37
2017-05-06T01:15:35.385Z,22.02
2017-05-06T01:18:04.428Z,25.65
2017-05-06T01:20:33.477Z,22.25
2017-05-06T01:23:02.556Z,23.55
2017-05-06T01:25:31.595Z,23.05
2017-05-06T01:28:01.381Z,21.53
2017-05-06T01:30:30.434Z,22.75
2017-05-06T01:32:59.476Z,23.05
2017-05-06T01:35:28.456Z,22.68
2017-05-06T01:37:57.509Z,23.50
2017-05-06T01:43:05.341Z,23.10
2017-05-06T01:45:34.306Z,23.48
2017-05-06T01:48:04.005Z,21.03
2017-05-06T01:50:33.621Z,21.65
2017-05-06T01:53:03.329Z,22.72
2017-05-06T01:55:33.055Z,22.82
2017-05-06T01:58:02.066Z,20.82
2017-05-06T02:00:31.033Z,21.43
2017-05-06T02:03:00.759Z,21.92
2017-05-06T02:05:29.776Z,22.30
2017-05-06T02:07:59.165Z,22.83
2017-05-06T02:10:28.148Z,21.53
2017-05-06T02:12:57.157Z,19.82
2017-05-06T02:15:26.141Z,19.93
2017-05-06T02:17:55.105Z,21.48
2017-05-06T02:20:24.118Z,20.20
2017-05-06T02:22:53.103Z,20.57
2017-05-06T02:25:22.810Z,20.55
2017-05-06T02:27:52.967Z,19.62
2017-05-06T02:30:21.947Z,19.45
2017-05-06T02:32:50.929Z,20.17
2017-05-06T02:35:20.657Z,21.05
2017-05-06T02:37:49.627Z,20.58
2017-05-06T02:40:19.330Z,21.57
2017-05-06T02:42:49.065Z,22.68
2017-05-06T02:45:18.047Z,21.30
2017-05-06T02:47:47.754Z,21.68
2017-05-06T02:50:16.783Z,20.30
2017-05-06T02:52:45.782Z,24.43
2017-05-06T02:55:14.761Z,21.85
2017-05-06T02:57:43.755Z,20.95
2017-05-06T03:00:12.739Z,20.23
2017-05-06T03:02:41.724Z,22.28
2017-05-06T03:05:10.731Z,18.88
2017-05-06T03:07:39.711Z,19.38
2017-05-06T03:10:09.430Z,19.63
2017-05-06T03:12:38.440Z,20.92
2017-05-06T03:15:07.423Z,20.50
2017-05-06T03:17:36.405Z,20.67
2017-05-06T03:20:05.397Z,21.80
2017-05-06T03:22:35.124Z,20.03
2017-05-06T03:25:04.093Z,19.52
2017-05-06T03:27:33.840Z,19.90
2017-05-06T03:30:02.805Z,21.58
2017-05-06T03:32:31.790Z,21.73
2017-05-06T03:35:01.543Z,19.32
2017-05-06T03:37:30.516Z,18.42
2017-05-06T03:39:59.484Z,21.30
2017-05-06T03:42:29.241Z,19.70
2017-05-06T03:44:58.223Z,19.92
2017-05-06T03:47:27.212Z,19.02
2017-05-06T03:49:56.212Z,18.93
2017-05-06T03:52:25.181Z,21.20
2017-05-06T03:54:54.904Z,20.15
2017-05-06T03:57:24.308Z,19.02
2017-05-06T03:59:53.277Z,20.00
2017-05-06T04:02:22.998Z,18.93
2017-05-06T04:04:52.729Z,20.13
2017-05-06T04:07:21.698Z,18.83
2017-05-06T04:09:51.418Z,19.92
2017-05-06T04:12:20.420Z,24.08
2017-05-06T04:14:49.384Z,18.75
2017-05-06T04:17:18.362Z,18.07
2017-05-06T04:19:47.297Z,19.50
2017-05-06T04:22:16.215Z,18.67
2017-05-06T04:24:45.143Z,19.57
2017-05-06T04:27:14.547Z,18.73
2017-05-06T04:29:43.474Z,18.30
2017-05-06T04:32:12.402Z,17.48
2017-05-06T04:34:41.349Z,18.98
2017-05-06T04:37:11.015Z,17.72
2017-05-06T04:39:39.947Z,17.57
2017-05-06T04:42:09.627Z,18.22
2017-05-06T04:44:38.555Z,18.27
2017-05-06T04:47:08.219Z,17.55
2017-05-06T04:49:37.157Z,18.10
2017-05-06T04:52:06.809Z,17.97
2017-05-06T04:54:35.734Z,17.70
2017-05-06T04:57:04.665Z,19.07
2017-05-06T04:59:33.574Z,16.43
2017-05-06T05:02:02.511Z,15.43
2017-05-06T05:04:31.472Z,18.27
2017-05-06T05:07:00.405Z,17.17
2017-05-06T05:09:30.072Z,17.00
2017-05-06T05:11:59.008Z,17.92
2017-05-06T05:14:28.662Z,17.85
2017-05-06T05:16:57.596Z,16.82
2017-05-06T05:19:26.774Z,17.17
2017-05-06T05:21:55.701Z,18.12
2017-05-06T05:24:25.348Z,16.50
2017-05-06T05:26:54.285Z,16.93
2017-05-06T05:29:23.197Z,15.73
2017-05-06T05:31:52.870Z,16.92
2017-05-06T05:34:21.805Z,17.22
2017-05-06T05:36:50.722Z,15.25
2017-05-06T05:39:19.663Z,15.43
2017-05-06T05:41:48.594Z,14.03
2017-05-06T05:44:17.534Z,14.37
2017-05-06T05:46:46.450Z,15.13
2017-05-06T05:49:15.380Z,14.77
2017-05-06T05:51:44.289Z,14.53
2017-05-06T05:54:13.941Z,12.88
2017-05-06T05:56:42.873Z,16.33
2017-05-06T05:59:13.081Z,15.13
2017-05-06T06:01:42.012Z,14.60
2017-05-06T06:04:11.702Z,14.90
2017-05-06T06:06:40.635Z,15.32
2017-05-06T06:09:09.564Z,13.75
2017-05-06T06:11:38.523Z,14.75
2017-05-06T06:14:07.433Z,12.92
2017-05-06T06:16:36.352Z,13.28
2017-05-06T06:19:05.315Z,13.80
2017-05-06T06:21:34.230Z,13.07
2017-05-06T06:24:03.160Z,13.70
2017-05-06T06:26:32.849Z,13.25
2017-05-06T06:29:01.761Z,13.63
2017-05-06T06:31:31.427Z,13.57
2017-05-06T06:34:00.387Z,12.15
2017-05-06T06:36:29.316Z,11.40
2017-05-06T06:38:58.243Z,13.78
2017-05-06T06:41:27.935Z,10.60
2017-05-06T06:43:56.863Z,10.90
2017-05-06T06:46:25.796Z,10.77
2017-05-06T06:48:54.729Z,11.85
2017-05-06T06:51:24.394Z,10.85
2017-05-06T06:53:53.303Z,10.58
2017-05-06T06:56:22.273Z,10.65
2017-05-06T06:58:51.203Z,11.28
2017-05-06T07:01:20.116Z,10.00
2017-05-06T07:03:49.805Z,10.37
2017-05-06T07:06:18.715Z,9.62
2017-05-06T07:08:48.374Z,9.52
2017-05-06T07:11:17.348Z,8.83
2017-05-06T07:13:46.275Z,11.35
2017-05-06T07:16:15.203Z,9.77
2017-05-06T07:18:44.895Z,9.75
2017-05-06T07:21:13.816Z,10.57
2017-05-06T07:23:43.465Z,9.57
2017-05-06T07:26:12.515Z,8.02
2017-05-06T07:28:42.183Z,8.88
2017-05-06T07:31:11.104Z,7.55
2017-05-06T07:33:40.034Z,6.83
2017-05-06T07:36:08.958Z,7.37
2017-05-06T07:38:37.861Z,7.67
2017-05-06T07:41:06.808Z,8.70
2017-05-06T07:43:35.727Z,8.27
2017-05-06T07:46:04.624Z,8.20
2017-05-06T07:48:33.557Z,7.87
2017-05-06T07:51:02.481Z,8.73
2017-05-06T07:53:31.384Z,7.45
2017-05-06T07:56:01.337Z,7.63
2017-05-06T07:58:30.259Z,6.98
2017-05-06T08:00:59.924Z,6.77
2017-05-06T08:03:28.861Z,6.95
2017-05-06T08:05:58.524Z,6.27
2017-05-06T08:08:27.434Z,5.78
2017-05-06T08:10:56.372Z,5.60
2017-05-06T08:13:25.306Z,6.83
2017-05-06T08:15:54.227Z,6.12
2017-05-06T08:18:23.900Z,5.28
2017-05-06T08:20:52.809Z,5.28
2017-05-06T08:23:21.713Z,5.03
2017-05-06T08:25:51.403Z,6.33
2017-05-06T08:28:20.306Z,6.12
2017-05-06T08:30:49.282Z,6.88
2017-05-06T08:33:18.212Z,6.95
2017-05-06T08:35:47.882Z,5.82
2017-05-06T08:38:16.789Z,6.83
2017-05-06T08:40:45.721Z,6.27
2017-05-06T08:43:14.647Z,6.20
2017-05-06T08:45:43.573Z,7.08
2017-05-06T08:48:12.523Z,7.28
2017-05-06T08:50:41.433Z,7.43
2017-05-06T08:53:10.367Z,7.42
2017-05-06T08:55:40.050Z,7.17
2017-05-06T08:58:08.948Z,7.55
2017-05-06T09:00:37.850Z,7.78
2017-05-06T09:03:07.551Z,7.17
2017-05-06T09:05:36.459Z,8.08
2017-05-06T09:08:06.127Z,7.15
2017-05-06T09:10:35.079Z,7.68
2017-05-06T09:13:03.988Z,7.23
2017-05-06T09:15:32.893Z,6.35
2017-05-06T09:18:01.830Z,7.18
2017-05-06T09:20:31.481Z,6.90
2017-05-06T09:23:00.384Z,6.80
2017-05-06T09:25:29.336Z,6.73
2017-05-06T09:27:58.976Z,6.77
2017-05-06T09:30:27.900Z,6.65
2017-05-06T09:32:56.843Z,7.33
2017-05-06T09:35:25.752Z,7.38
2017-05-06T09:37:54.657Z,6.47
2017-05-06T09:40:23.589Z,8.33
2017-05-06T09:42:52.511Z,7.08
2017-05-06T09:45:21.439Z,6.08
2017-05-06T09:47:50.388Z,8.15
2017-05-06T09:50:19.301Z,7.97
2017-05-06T09:52:48.210Z,7.18
2017-05-06T09:55:17.160Z,6.82
2017-05-06T09:57:46.814Z,6.60
2017-05-06T10:00:15.740Z,7.15
2017-05-06T10:02:44.691Z,6.57
2017-05-06T10:05:13.618Z,6.18
2017-05-06T10:07:42.542Z,6.55
2017-05-06T10:10:12.217Z,6.42
2017-05-06T10:12:41.140Z,5.77
2017-05-06T10:15:10.788Z,6.13
2017-05-06T10:17:39.735Z,6.20
2017-05-06T10:20:09.413Z,6.95
2017-05-06T10:22:38.316Z,7.73
2017-05-06T10:25:07.246Z,5.68
2017-05-06T10:27:36.156Z,6.12
2017-05-06T10:30:05.082Z,5.83
2017-05-06T10:32:34.014Z,5.77
2017-05-06T10:35:03.678Z,6.67
2017-05-06T10:37:32.603Z,6.15
2017-05-06T10:40:02.295Z,6.17
2017-05-06T10:42:31.196Z,6.77
2017-05-06T10:45:00.120Z,6.47
2017-05-06T10:47:29.054Z,6.02
2017-05-06T10:50:05.078Z,8.40
2017-05-06T10:52:34.005Z,6.32
2017-05-06T10:55:02.913Z,6.63
2017-05-06T10:57:32.344Z,5.35
2017-05-06T11:00:02.045Z,5.50
2017-05-06T11:02:31.698Z,5.93
2017-05-06T11:05:00.600Z,6.35
2017-05-06T11:07:29.537Z,5.77
2017-05-06T11:09:59.180Z,6.65
2017-05-06T11:12:28.108Z,5.68
2017-05-06T11:14:57.065Z,5.53
2017-05-06T11:17:25.988Z,6.27
2017-05-06T11:19:54.919Z,5.63
2017-05-06T11:22:24.601Z,7.00
2017-05-06T11:24:53.530Z,6.57
2017-05-06T11:27:22.463Z,5.73
2017-05-06T11:29:51.426Z,5.50
2017-05-06T11:32:20.362Z,6.28
2017-05-06T11:34:49.292Z,6.33
2017-05-06T11:37:18.968Z,5.40
2017-05-06T11:39:47.891Z,5.80
2017-05-06T11:42:17.544Z,6.68
2017-05-06T11:44:46.488Z,6.55
2017-05-06T11:47:15.393Z,6.85
2017-05-06T11:49:45.063Z,6.12
2017-05-06T11:52:14.019Z,6.42
2017-05-06T11:54:42.924Z,5.78
2017-05-06T11:57:11.838Z,6.38
2017-05-06T11:59:40.788Z,6.33
2017-05-06T12:02:09.723Z,7.10
2017-05-06T12:04:38.630Z,6.65
2017-05-06T12:07:07.581Z,7.42
2017-05-06T12:09:36.503Z,6.60
2017-05-06T12:12:05.416Z,7.60
2017-05-06T12:14:34.367Z,6.23
2017-05-06T12:17:03.278Z,6.28
2017-05-06T12:19:32.205Z,6.13
2017-05-06T12:22:02.203Z,6.52
2017-05-06T12:24:31.105Z,7.65
2017-05-06T12:27:01.642Z,7.80
2017-05-06T12:29:31.335Z,7.03
2017-05-06T12:32:00.259Z,7.35
2017-05-06T12:34:29.187Z,6.48
2017-05-06T12:36:58.135Z,7.43
2017-05-06T12:39:27.795Z,6.98
2017-05-06T12:41:56.702Z,6.77
2017-05-06T12:44:25.646Z,7.38
2017-05-06T12:46:54.549Z,7.17
2017-05-06T12:49:23.453Z,6.62
2017-05-06T12:51:52.385Z,7.47
2017-05-06T12:54:21.292Z,6.83
2017-05-06T12:56:50.956Z,7.58
2017-05-06T12:59:19.921Z,8.57
2017-05-06T13:01:48.843Z,7.25
2017-05-06T13:04:17.763Z,7.85
2017-05-06T13:06:46.707Z,7.95
2017-05-06T13:09:15.612Z,7.22
2017-05-06T13:11:45.447Z,6.98
2017-05-06T13:14:14.394Z,8.58
2017-05-06T13:16:43.300Z,8.32
2017-05-06T13:19:12.204Z,7.45
2017-05-06T13:21:41.258Z,8.22
2017-05-06T13:24:10.921Z,7.60
2017-05-06T13:26:39.825Z,8.20
2017-05-06T13:29:08.771Z,7.50
2017-05-06T13:31:37.676Z,7.50
2017-05-06T13:34:06.583Z,7.58
2017-05-06T13:36:35.536Z,9.25
2017-05-06T13:39:04.444Z,7.85
2017-05-06T13:41:33.367Z,7.18
2017-05-06T13:44:02.319Z,8.25
2017-05-06T13:46:31.242Z,8.17
2017-05-06T13:49:00.158Z,7.70
2017-05-06T13:51:29.121Z,7.17
2017-05-06T13:53:58.044Z,8.52
2017-05-06T13:56:27.008Z,7.82
2017-05-06T13:58:55.972Z,9.40
2017-05-06T14:01:24.888Z,8.20
2017-05-06T14:03:53.840Z,9.23
2017-05-06T14:06:23.538Z,9.02
2017-05-06T14:08:52.467Z,9.48
2017-05-06T14:11:22.137Z,9.72
2017-05-06T14:13:51.091Z,10.18
2017-05-06T14:16:20.010Z,8.52
2017-05-06T14:18:48.935Z,8.65
2017-05-06T14:21:17.895Z,8.97
2017-05-06T14:23:46.809Z,8.55
2017-05-06T14:26:15.739Z,8.58
2017-05-06T14:28:44.676Z,8.97
2017-05-06T14:31:13.584Z,8.40
2017-05-06T14:33:42.494Z,8.90
2017-05-06T14:36:11.448Z,8.97
2017-05-06T14:38:40.365Z,9.02
2017-05-06T14:41:09.274Z,7.78
2017-05-06T14:43:38.969Z,8.48
2017-05-06T14:46:07.885Z,7.98
2017-05-06T14:48:37.537Z,9.52
2017-05-06T14:51:06.516Z,9.07
2017-05-06T14:53:35.426Z,8.83
2017-05-06T14:56:04.355Z,8.15
2017-05-06T14:58:33.308Z,8.48
2017-05-06T15:01:02.220Z,9.00
2017-05-06T15:03:31.146Z,8.15
2017-05-06T15:06:00.847Z,8.52
2017-05-06T15:08:30.244Z,10.00
2017-05-06T15:10:59.152Z,9.52
2017-05-06T15:13:28.837Z,10.05
2017-05-06T15:15:57.763Z,8.32
2017-05-06T15:18:27.408Z,8.98
2017-05-06T15:20:56.358Z,9.25
2017-05-06T15:23:26.028Z,9.77
2017-05-06T15:25:54.945Z,9.92
2017-05-06T15:28:24.647Z,9.02
2017-05-06T15:30:53.561Z,11.13
2017-05-06T15:33:23.208Z,9.78
2017-05-06T15:35:52.141Z,9.95
2017-05-06T15:38:21.116Z,12.50
2017-05-06T15:40:50.042Z,9.60
2017-05-06T15:43:19.721Z,10.82
2017-05-06T15:45:48.630Z,8.77
2017-05-06T15:48:17.550Z,9.17
2017-05-06T15:50:47.254Z,9.73
2017-05-06T15:53:16.926Z,10.62
2017-05-06T15:55:45.850Z,10.30
2017-05-06T15:58:14.788Z,10.73
2017-05-06T16:00:43.711Z,10.48
2017-05-06T16:03:12.656Z,9.82
2017-05-06T16:05:42.337Z,9.83
2017-05-06T16:08:11.260Z,9.93
2017-05-06T16:10:40.223Z,12.17
2017-05-06T16:13:09.184Z,10.92
2017-05-06T16:15:38.093Z,10.12
2017-05-06T16:18:07.090Z,10.35
2017-05-06T16:20:36.023Z,10.53
2017-05-06T16:23:04.946Z,10.75
2017-05-06T16:25:33.857Z,11.87
2017-05-06T16:28:02.804Z,10.28
2017-05-06T16:30:31.719Z,10.42
2017-05-06T16:33:00.659Z,9.87
2017-05-06T16:35:29.609Z,10.97
2017-05-06T16:37:58.566Z,11.52
2017-05-06T16:40:28.221Z,10.42
2017-05-06T16:42:57.184Z,10.05
2017-05-06T16:45:26.093Z,9.72
2017-05-06T16:47:55.083Z,10.15
2017-05-06T16:50:24.045Z,10.22
2017-05-06T16:52:53.811Z,10.05
2017-05-06T16:55:22.751Z,10.53
2017-05-06T16:57:52.435Z,10.85
2017-05-06T17:00:21.411Z,11.13
2017-05-06T17:02:50.330Z,10.50
2017-05-06T17:05:19.295Z,12.33
2017-05-06T17:07:48.205Z,12.10
2017-05-06T17:10:17.152Z,11.23
2017-05-06T17:12:46.150Z,10.57
2017-05-06T17:15:15.077Z,11.07
2017-05-06T17:17:44.009Z,10.63
2017-05-06T17:20:12.953Z,11.27
2017-05-06T17:22:41.865Z,11.07
2017-05-06T17:25:10.795Z,10.38
2017-05-06T17:27:39.728Z,11.37
2017-05-06T17:30:08.700Z,12.20
2017-05-06T17:32:37.631Z,10.92
2017-05-06T17:35:06.564Z,11.47
2017-05-06T17:37:35.503Z,10.63
2017-05-06T17:40:04.409Z,11.27
2017-05-06T17:42:33.356Z,11.42
2017-05-06T17:45:02.270Z,12.65
2017-05-06T17:47:31.200Z,12.03
2017-05-06T17:50:00.899Z,10.92
2017-05-06T17:52:29.827Z,12.32
2017-05-06T17:54:58.758Z,12.33
2017-05-06T17:57:27.705Z,14.50
2017-05-06T17:59:56.621Z,12.50
2017-05-06T18:02:25.547Z,14.40
2017-05-06T18:04:54.503Z,11.02
2017-05-06T18:07:23.428Z,14.17
2017-05-06T18:09:52.365Z,13.22
2017-05-06T18:12:22.041Z,13.83
2017-05-06T18:14:50.956Z,12.38
2017-05-06T18:17:20.627Z,13.77
2017-05-06T18:19:49.573Z,11.97
2017-05-06T18:22:18.484Z,13.60
2017-05-06T18:24:47.414Z,12.78
2017-05-06T18:27:16.373Z,12.72
2017-05-06T18:29:45.287Z,12.70
2017-05-06T18:32:14.220Z,13.00
2017-05-06T18:34:43.893Z,12.27
2017-05-06T18:37:12.813Z,12.28
2017-05-06T18:39:42.472Z,11.50
2017-05-06T18:42:11.427Z,12.17
2017-05-06T18:44:40.383Z,11.47
2017-05-06T18:47:09.318Z,11.32
2017-05-06T18:49:38.998Z,11.40
2017-05-06T18:52:07.946Z,11.65
2017-05-06T18:54:36.881Z,11.57
2017-05-06T18:57:05.851Z,11.38
2017-05-06T18:59:34.785Z,11.20
2017-05-06T19:02:04.432Z,11.53
2017-05-06T19:04:33.386Z,12.08
2017-05-06T19:07:03.109Z,12.57
2017-05-06T19:09:32.763Z,12.63
2017-05-06T19:12:01.717Z,11.35
2017-05-06T19:14:30.671Z,14.17
2017-05-06T19:16:59.593Z,12.33
2017-05-06T19:19:28.551Z,12.77
2017-05-06T19:21:57.510Z,14.45
2017-05-06T19:24:26.422Z,15.87
2017-05-06T19:26:55.727Z,14.83
2017-05-06T19:29:24.669Z,14.83
2017-05-06T19:31:53.593Z,15.18
2017-05-06T19:34:22.579Z,17.78
2017-05-06T19:36:51.508Z,15.88
2017-05-06T19:39:20.483Z,14.32
2017-05-06T19:41:49.446Z,13.92
2017-05-06T19:44:18.378Z,14.12
2017-05-06T19:46:47.342Z,13.13
2017-05-06T19:49:16.305Z,15.83
2017-05-06T19:51:45.227Z,15.58
2017-05-06T19:54:14.188Z,14.55
2017-05-06T19:56:43.135Z,14.08
2017-05-06T19:59:12.087Z,14.08
2017-05-06T20:01:41.012Z,14.40
2017-05-06T20:04:09.962Z,17.15
2017-05-06T20:06:38.899Z,17.80
2017-05-06T20:09:07.845Z,17.78
2017-05-06T20:11:36.813Z,18.88
2017-05-06T20:14:06.775Z,18.95
2017-05-06T20:16:35.711Z,17.50
2017-05-06T20:19:04.673Z,17.90
2017-05-06T20:21:33.603Z,18.32
2017-05-06T20:24:02.517Z,16.53
2017-05-06T20:26:32.198Z,16.82
2017-05-06T20:29:01.124Z,18.55
2017-05-06T20:31:30.040Z,16.15
2017-05-06T20:33:58.976Z,19.02
2017-05-06T20:36:27.891Z,16.32
2017-05-06T20:38:57.544Z,16.93
2017-05-06T20:41:26.511Z,16.53
2017-05-06T20:43:55.445Z,17.05
2017-05-06T20:46:24.372Z,17.65
2017-05-06T20:48:54.051Z,17.88
2017-05-06T20:51:22.983Z,18.33
2017-05-06T20:53:52.683Z,20.68
2017-05-06T20:56:22.369Z,20.92
2017-05-06T20:58:51.299Z,20.65
2017-05-06T21:01:20.972Z,19.65
2017-05-06T21:03:49.923Z,19.35
2017-05-06T21:06:18.855Z,18.72
2017-05-06T21:08:47.796Z,19.05
2017-05-06T21:11:16.750Z,19.70
2017-05-06T21:13:45.660Z,20.50
2017-05-06T21:16:15.335Z,19.35
2017-05-06T21:18:44.275Z,18.28
2017-05-06T21:21:13.207Z,19.73
2017-05-06T21:23:42.137Z,20.63
2017-05-06T21:26:11.077Z,21.57
2017-05-06T21:28:40.013Z,21.88
2017-05-06T21:31:08.921Z,19.80
2017-05-06T21:33:38.636Z,20.15
2017-05-06T21:36:07.598Z,21.70
2017-05-06T21:38:36.511Z,21.70
2017-05-06T21:41:06.197Z,20.08
2017-05-06T21:43:35.109Z,18.87
2017-05-06T21:46:04.030Z,20.20
2017-05-06T21:48:32.968Z,20.62
2017-05-06T21:51:01.896Z,19.62
2017-05-06T21:53:31.580Z,20.23
2017-05-06T21:56:00.542Z,20.57
2017-05-06T21:58:29.466Z,20.62
2017-05-06T22:00:58.390Z,20.08
2017-05-06T22:03:27.335Z,20.37
2017-05-06T22:05:56.268Z,19.28
2017-05-06T22:08:25.921Z,22.80
2017-05-06T22:10:54.867Z,21.55
2017-05-06T22:13:24.519Z,20.40
2017-05-06T22:15:53.450Z,20.72
2017-05-06T22:18:22.405Z,20.23
2017-05-06T22:20:51.345Z,20.67
2017-05-06T22:23:20.268Z,20.22
2017-05-06T22:25:49.210Z,22.17
2017-05-06T22:28:18.167Z,34.20
2017-05-06T22:30:47.104Z,30.85
2017-05-06T22:33:16.059Z,24.22
2017-05-06T22:35:44.978Z,29.05
2017-05-06T22:38:13.907Z,24.82
2017-05-06T22:40:43.589Z,24.12
2017-05-06T22:43:12.509Z,23.43
2017-05-06T22:45:42.166Z,22.43
2017-05-06T22:48:11.126Z,21.68
2017-05-06T22:50:40.055Z,23.37
2017-05-06T22:53:08.969Z,21.25
2017-05-06T22:55:37.917Z,25.07
2017-05-06T22:58:06.829Z,22.42
2017-05-06T23:00:35.742Z,21.92
2017-05-06T23:03:04.692Z,19.85
2017-05-06T23:05:33.602Z,21.66
2017-05-06T23:08:02.531Z,20.77
2017-05-06T23:10:31.490Z,22.37
2017-05-06T23:13:00.402Z,22.00
2017-05-06T23:15:29.317Z,21.43
2017-05-06T23:17:59.002Z,19.93
2017-05-06T23:20:27.916Z,19.53
2017-05-06T23:22:56.829Z,19.30
2017-05-06T23:25:25.765Z,19.32
2017-05-06T23:27:54.701Z,20.97
2017-05-06T23:30:24.358Z,23.63
2017-05-06T23:32:53.328Z,21.43
2017-05-06T23:35:22.255Z,22.08
2017-05-06T23:37:51.185Z,20.08
2017-05-06T23:40:20.887Z,21.05
2017-05-06T23:42:50.571Z,23.85
2017-05-06T23:45:19.489Z,25.90
2017-05-06T23:47:48.447Z,22.75
2017-05-06T23:50:17.387Z,21.45
2017-05-06T23:52:47.056Z,20.62
2017-05-06T23:55:16.003Z,20.10
2017-05-06T23:57:44.935Z,19.80
